Time;durP1;ratioP1;P1;durP2;ratioP2;P2;SDS_P1;SDS_P2;PMS_P1;PMS_P2;Temp;Humidity;BMP_temperature;BMP_pressure;BME280_temperature;BME280_humidity;BME280_pressure;Samples;Min_cycle;Max_cycle;Signal;HPM_P1;HPM_P2
2022/11/08 00:02:08;;;;;;;;;;;;;;;8.31;69.74;99113.81;5250638;28;19928;-75
2022/11/08 00:14:25;;;;;;;;;;;;;;;8.31;70.74;99114.69;5224128;28;19954;-75
2022/11/08 00:17:16;;;;;;;;;;;;;;;8.20;70.88;99118.19;5224118;28;19924;-75
2022/11/08 00:20:07;;;;;;;;;;;;;;;8.35;71.24;99110.81;5244651;28;19971;-75
2022/11/08 00:22:58;;;;;;;;;;;;;;;8.42;70.87;99114.66;5261862;28;20054;-75
2022/11/08 00:25:54;;;;;;;;;;;;;;;8.29;70.69;99108.66;5265821;28;19973;-74
2022/11/08 00:28:44;;;;;;;;;;;;;;;8.28;70.78;99101.72;5262805;28;19927;-75
2022/11/08 00:31:34;;;;;;;;;;;;;;;8.15;70.92;99095.75;5238448;28;20370;-74
2022/11/08 00:34:24;;;;;;;;;;;;;;;8.11;70.59;99103.09;5256937;28;19927;-74
2022/11/08 00:37:14;;;;;;;;;;;;;;;8.12;69.69;99099.50;5265498;28;20005;-73
2022/11/08 00:40:05;;;;;;;;;;;;;;;8.06;69.75;99097.34;5258608;28;19934;-75
2022/11/08 00:42:55;;;;;;;;;;;;;;;8.03;69.86;99091.47;5256519;28;20403;-75
2022/11/08 00:45:45;;;;;;;;;;;;;;;7.95;70.34;99084.19;5244300;28;20435;-75
2022/11/08 00:48:35;;;;;;;;;;;;;;;7.96;69.28;99086.69;5244365;28;20290;-74
2022/11/08 00:51:25;;;;;;;;;;;;;;;8.10;71.15;99082.09;5249343;28;20045;-75
2022/11/08 00:54:16;;;;;;;;;;;;;;;8.00;71.76;99080.19;5244143;28;19931;-74
2022/11/08 00:57:06;;;;;;;;;;;;;;;8.33;71.47;99073.09;5244062;28;19928;-75
2022/11/08 00:59:56;;;;;;;;;;;;;;;8.22;71.40;99083.72;5251664;28;19924;-75
2022/11/08 01:02:45;;;;;;;;;;;;;;;8.09;70.21;99077.78;5247590;28;19927;-74
2022/11/08 01:05:36;;;;;;;;;;;;;;;7.94;71.43;99083.31;5228943;28;19948;-74
2022/11/08 01:08:26;;;;;;;;;;;;;;;7.86;71.46;99080.50;5243470;28;20063;-74
2022/11/08 01:11:20;;;;;;;;;;;;;;;7.90;70.63;99067.88;5232458;28;19970;-75
2022/11/08 01:14:11;;;;;;;;;;;;;;;7.84;70.64;99061.28;5256278;28;19943;-74
2022/11/08 01:17:00;;;;;;;;;;;;;;;7.80;70.19;99062.50;5249439;28;19927;-74
2022/11/08 01:19:50;;;;;;;;;;;;;;;7.78;69.76;99059.13;5258868;28;20392;-75
2022/11/08 01:22:40;;;;;;;;;;;;;;;7.78;69.31;99067.06;5257353;28;20014;-75
2022/11/08 01:25:29;;;;;;;;;;;;;;;7.70;70.50;99069.50;5265151;28;20571;-74
2022/11/08 01:28:20;;;;;;;;;;;;;;;7.72;71.14;99057.03;5258534;28;20033;-75
2022/11/08 01:31:12;;;;;;;;;;;;;;;7.98;72.50;99057.53;5262503;28;20394;-75
2022/11/08 01:34:01;;;;;;;;;;;;;;;8.15;70.94;99050.88;5265136;28;19923;-74
2022/11/08 01:36:51;;;;;;;;;;;;;;;7.93;71.65;99063.19;5256811;28;19946;-74
2022/11/08 01:39:41;;;;;;;;;;;;;;;7.82;71.30;99057.94;5250521;28;20451;-75
2022/11/08 01:42:31;;;;;;;;;;;;;;;7.71;70.93;99056.16;5243492;28;19930;-75
2022/11/08 01:45:40;;;;;;;;;;;;;;;7.70;70.49;99048.38;5245188;28;20309;-74
2022/11/08 01:48:30;;;;;;;;;;;;;;;7.66;71.07;99052.22;5252040;28;20053;-73
2022/11/08 01:51:24;;;;;;;;;;;;;;;7.64;70.88;99044.44;5247396;28;20389;-73
2022/11/08 01:54:18;;;;;;;;;;;;;;;7.54;70.00;99035.56;5249161;28;20025;-75
2022/11/08 01:57:09;;;;;;;;;;;;;;;7.49;69.56;99028.03;5251730;28;19986;-75
2022/11/08 02:00:00;;;;;;;;;;;;;;;7.42;70.57;99028.66;5244593;28;19946;-73
2022/11/08 02:02:58;;;;;;;;;;;;;;;7.28;70.72;99024.47;5268202;28;19920;-75
2022/11/08 02:05:48;;;;;;;;;;;;;;;7.26;69.68;99023.78;5264747;28;19920;-75
2022/11/08 02:08:40;;;;;;;;;;;;;;;7.13;69.62;99017.78;5238522;28;20322;-75
2022/11/08 02:11:32;;;;;;;;;;;;;;;7.22;70.01;99012.63;5246779;28;19928;-74
2022/11/08 02:14:22;;;;;;;;;;;;;;;7.22;70.69;99004.72;5246866;28;19927;-74
2022/11/08 02:17:13;;;;;;;;;;;;;;;7.19;70.54;98990.94;5253329;28;19927;-75
2022/11/08 02:20:03;;;;;;;;;;;;;;;7.15;70.61;99000.91;5249407;28;19931;-75
2022/11/08 02:23:12;;;;;;;;;;;;;;;7.11;70.33;98986.25;5245828;28;19963;-75
2022/11/08 02:26:01;;;;;;;;;;;;;;;7.05;70.58;98990.25;5247367;28;19931;-75
2022/11/08 02:28:51;;;;;;;;;;;;;;;7.04;70.60;98988.53;5257456;28;19931;-74
2022/11/08 02:31:41;;;;;;;;;;;;;;;7.04;70.71;98985.91;5267324;28;20545;-74
2022/11/08 02:34:33;;;;;;;;;;;;;;;7.09;71.03;98987.38;5267536;28;19927;-75
2022/11/08 02:37:24;;;;;;;;;;;;;;;7.03;71.09;98983.41;5255973;28;19928;-74
2022/11/08 02:40:14;;;;;;;;;;;;;;;7.02;70.71;98982.56;5246087;28;19975;-74
2022/11/08 02:43:04;;;;;;;;;;;;;;;6.97;71.13;98975.97;5246413;28;20459;-75
2022/11/08 02:45:55;;;;;;;;;;;;;;;6.97;70.91;98971.53;5245633;28;19924;-74
2022/11/08 02:48:45;;;;;;;;;;;;;;;6.97;70.68;98961.00;5256902;28;19924;-75
2022/11/08 02:51:35;;;;;;;;;;;;;;;6.89;70.87;98970.47;5266635;28;19943;-74
2022/11/08 02:54:25;;;;;;;;;;;;;;;6.85;70.89;98971.66;5267318;28;20076;-74
2022/11/08 02:57:15;;;;;;;;;;;;;;;6.81;70.70;98968.44;5256404;28;19927;-75
2022/11/08 03:00:05;;;;;;;;;;;;;;;6.79;70.50;98963.31;5238162;28;19919;-75
2022/11/08 03:02:55;;;;;;;;;;;;;;;6.72;70.14;98962.13;5249241;28;20384;-75
2022/11/08 03:05:46;;;;;;;;;;;;;;;6.73;70.55;98966.41;5246175;28;19927;-73
2022/11/08 03:08:36;;;;;;;;;;;;;;;6.79;70.95;98967.75;5245282;28;19924;-73
2022/11/08 03:11:26;;;;;;;;;;;;;;;6.67;70.74;98966.06;5236162;28;19920;-75
2022/11/08 03:14:16;;;;;;;;;;;;;;;6.68;70.79;98958.00;5245994;28;19943;-74
2022/11/08 03:17:06;;;;;;;;;;;;;;;6.63;71.10;98954.09;5245246;28;20021;-74
2022/11/08 03:19:56;;;;;;;;;;;;;;;6.37;71.96;98967.47;5252794;28;19973;-75
2022/11/08 03:22:46;;;;;;;;;;;;;;;6.42;70.24;98964.47;5261335;28;20313;-75
2022/11/08 03:25:36;;;;;;;;;;;;;;;6.40;70.06;98966.41;5266950;28;19931;-75
2022/11/08 03:28:25;;;;;;;;;;;;;;;6.35;70.42;98964.09;5265153;28;20388;-73
2022/11/08 03:31:16;;;;;;;;;;;;;;;6.51;70.08;98967.22;5248039;22;20298;-73
2022/11/08 03:34:05;;;;;;;;;;;;;;;6.43;70.30;98960.91;5210320;28;19921;-71
2022/11/08 03:36:55;;;;;;;;;;;;;;;6.33;70.67;98963.41;5224331;28;20401;-72
2022/11/08 03:39:45;;;;;;;;;;;;;;;6.17;70.01;98968.16;5223034;28;19928;-71
2022/11/08 03:42:35;;;;;;;;;;;;;;;6.15;69.34;98965.63;5231447;28;19973;-73
2022/11/08 03:45:25;;;;;;;;;;;;;;;6.13;70.24;98970.19;5234245;28;19932;-73
2022/11/08 03:48:14;;;;;;;;;;;;;;;6.25;71.13;98968.41;5229372;28;20025;-72
2022/11/08 03:51:05;;;;;;;;;;;;;;;6.11;70.66;98977.34;5242982;28;19925;-72
2022/11/08 03:53:54;;;;;;;;;;;;;;;6.15;70.63;98976.16;5214012;28;19936;-73
2022/11/08 03:56:44;;;;;;;;;;;;;;;6.06;70.12;98985.59;5244704;28;20030;-73
2022/11/08 03:59:34;;;;;;;;;;;;;;;6.36;69.89;98971.06;5246084;28;19974;-72
2022/11/08 04:02:24;;;;;;;;;;;;;;;6.35;69.65;98964.09;5235318;28;19938;-71
2022/11/08 04:05:15;;;;;;;;;;;;;;;6.19;71.24;98961.81;5219019;28;19931;-72
2022/11/08 04:08:05;;;;;;;;;;;;;;;6.20;71.18;98966.13;5235712;28;19931;-73
2022/11/08 04:10:56;;;;;;;;;;;;;;;6.19;71.14;98964.47;5228741;28;19927;-72
2022/11/08 04:16:55;;;;;;;;;;;;;;;6.15;71.03;98965.63;5223852;28;19951;-73
2022/11/08 04:22:53;;;;;;;;;;;;;;;6.39;70.59;98956.81;5232277;28;20289;-73
2022/11/08 04:25:43;;;;;;;;;;;;;;;6.15;70.71;98962.16;5239168;28;19927;-70
2022/11/08 04:28:35;;;;;;;;;;;;;;;5.92;71.64;98962.06;5244105;28;19927;-72
2022/11/08 04:31:25;;;;;;;;;;;;;;;6.11;71.69;98954.50;5239311;28;19932;-72
2022/11/08 04:34:15;;;;;;;;;;;;;;;6.05;70.76;98947.06;5215015;28;19924;-72
2022/11/08 04:37:05;;;;;;;;;;;;;;;5.87;71.60;98920.31;5235532;28;20011;-72
2022/11/08 04:39:55;;;;;;;;;;;;;;;6.20;72.06;98946.88;5243941;28;19931;-72
2022/11/08 04:42:45;;;;;;;;;;;;;;;6.07;71.53;98949.59;5223381;28;19947;-72
2022/11/08 04:45:35;;;;;;;;;;;;;;;6.01;72.18;98936.88;5215858;28;19947;-72
2022/11/08 04:48:24;;;;;;;;;;;;;;;5.97;72.17;98927.56;5204664;28;19974;-72
2022/11/08 04:51:16;;;;;;;;;;;;;;;5.96;71.53;98926.72;5202269;28;19928;-72
2022/11/08 04:54:06;;;;;;;;;;;;;;;6.01;71.97;98929.81;5230236;28;19931;-73
2022/11/08 04:56:56;;;;;;;;;;;;;;;6.00;72.32;98928.16;5243081;28;20003;-72
2022/11/08 04:59:46;;;;;;;;;;;;;;;6.21;72.77;98920.41;5236984;28;19924;-73
2022/11/08 05:02:36;;;;;;;;;;;;;;;6.38;72.45;98908.56;5223989;28;20302;-72
2022/11/08 05:05:26;;;;;;;;;;;;;;;6.37;73.56;98906.91;5208519;28;19979;-73
2022/11/08 05:08:16;;;;;;;;;;;;;;;6.36;72.18;98899.97;5222617;28;20010;-73
2022/11/08 05:11:08;;;;;;;;;;;;;;;6.30;71.95;98903.06;5230752;28;19927;-71
2022/11/08 05:13:58;;;;;;;;;;;;;;;6.18;72.10;98906.63;5244329;28;19946;-70
2022/11/08 05:16:48;;;;;;;;;;;;;;;6.13;71.59;98895.66;5226750;28;19927;-72
2022/11/08 05:25:56;;;;;;;;;;;;;;;5.96;70.88;98904.81;5213179;28;19931;-73
2022/11/08 05:28:46;;;;;;;;;;;;;;;5.92;71.25;98914.69;5220200;28;19934;-73
2022/11/08 05:31:36;;;;;;;;;;;;;;;5.92;70.85;98911.22;5225938;28;20023;-71
2022/11/08 05:34:27;;;;;;;;;;;;;;;6.09;71.89;98913.44;5189440;28;20325;-74
2022/11/08 05:37:17;;;;;;;;;;;;;;;6.16;72.30;98916.44;5228724;28;20289;-73
2022/11/08 05:40:07;;;;;;;;;;;;;;;6.31;72.77;98912.63;5218863;28;20014;-73
2022/11/08 05:42:57;;;;;;;;;;;;;;;6.70;72.63;98899.94;5217957;28;20046;-71
2022/11/08 05:45:47;;;;;;;;;;;;;;;6.56;73.45;98893.97;5221308;28;19928;-73
2022/11/08 05:48:37;;;;;;;;;;;;;;;6.75;73.36;98890.69;5230591;28;20444;-73
2022/11/08 05:51:27;;;;;;;;;;;;;;;6.82;72.69;98901.59;5224026;28;19970;-71
2022/11/08 05:54:16;;;;;;;;;;;;;;;6.66;72.86;98899.34;5224508;28;19921;-71
2022/11/08 05:57:06;;;;;;;;;;;;;;;6.53;72.86;98898.66;5209112;28;19947;-72
2022/11/08 05:59:56;;;;;;;;;;;;;;;6.46;72.38;98903.56;5224326;28;19947;-72
2022/11/08 06:02:46;;;;;;;;;;;;;;;6.34;71.60;98897.44;5197023;28;20010;-72
2022/11/08 06:05:36;;;;;;;;;;;;;;;6.46;72.78;98890.38;5223490;28;19972;-72
2022/11/08 06:08:26;;;;;;;;;;;;;;;6.47;72.01;98889.41;5217429;28;20010;-71
2022/11/08 06:11:20;;;;;;;;;;;;;;;6.49;72.17;98900.69;5204986;28;19928;-71
2022/11/08 06:14:12;;;;;;;;;;;;;;;6.48;72.11;98891.09;5205680;28;20035;-71
2022/11/08 06:17:02;;;;;;;;;;;;;;;6.56;72.55;98891.34;5190314;28;19979;-71
2022/11/08 06:19:52;;;;;;;;;;;;;;;6.50;71.69;98889.19;5204923;28;19928;-71
2022/11/08 06:22:42;;;;;;;;;;;;;;;6.43;71.77;98893.25;5205308;28;20306;-71
2022/11/08 06:25:32;;;;;;;;;;;;;;;6.62;73.33;98879.44;5190679;28;20393;-71
2022/11/08 06:28:22;;;;;;;;;;;;;;;6.87;73.38;98883.63;5206030;28;20349;-71
2022/11/08 06:31:12;;;;;;;;;;;;;;;6.85;72.21;98895.22;5220142;28;19924;-70
2022/11/08 06:34:02;;;;;;;;;;;;;;;6.66;71.55;98898.53;5217951;28;19920;-72
2022/11/08 06:36:53;;;;;;;;;;;;;;;6.62;71.28;98895.25;5215830;28;19927;-72
2022/11/08 06:39:43;;;;;;;;;;;;;;;6.66;71.95;98901.16;5209753;28;19964;-71
2022/11/08 06:42:33;;;;;;;;;;;;;;;6.63;72.73;98893.50;5208488;28;20054;-71
2022/11/08 06:45:23;;;;;;;;;;;;;;;6.75;71.88;98903.03;5223449;28;20369;-71
2022/11/08 06:48:13;;;;;;;;;;;;;;;6.71;72.49;98896.34;5226650;28;19935;-71
2022/11/08 06:51:03;;;;;;;;;;;;;;;6.72;72.42;98890.97;5216093;28;20315;-71
2022/11/08 06:53:53;;;;;;;;;;;;;;;6.67;71.69;98895.75;5224823;28;19965;-70
2022/11/08 06:56:44;;;;;;;;;;;;;;;6.73;72.62;98873.34;5214366;28;20013;-71
2022/11/08 06:59:34;;;;;;;;;;;;;;;6.99;71.72;98879.19;5217908;28;19920;-72
2022/11/08 07:02:23;;;;;;;;;;;;;;;6.99;71.51;98884.44;5211998;28;19920;-72
2022/11/08 07:05:14;;;;;;;;;;;;;;;7.04;71.26;98888.38;5212444;28;19928;-72
2022/11/08 07:08:04;;;;;;;;;;;;;;;6.93;71.17;98901.59;5212984;28;19935;-72
2022/11/08 07:10:54;;;;;;;;;;;;;;;6.89;71.28;98894.88;5202702;28;20034;-72
2022/11/08 07:13:44;;;;;;;;;;;;;;;7.20;71.51;98889.75;5212124;28;19943;-70
2022/11/08 07:16:34;;;;;;;;;;;;;;;7.34;70.97;98886.00;5211662;28;19936;-70
2022/11/08 07:19:24;;;;;;;;;;;;;;;7.35;71.32;98896.44;5205534;28;20408;-70
2022/11/08 07:22:13;;;;;;;;;;;;;;;7.19;72.68;98902.13;5214907;28;20167;-70
2022/11/08 07:25:03;;;;;;;;;;;;;;;7.22;72.38;98917.69;5214043;28;20022;-72
2022/11/08 07:27:58;;;;;;;;;;;;;;;7.24;71.48;98913.13;5213316;28;20131;-72
2022/11/08 07:30:47;;;;;;;;;;;;;;;7.37;71.31;98909.50;5207686;28;19921;-71
2022/11/08 07:33:37;;;;;;;;;;;;;;;7.53;71.62;98908.09;5205581;28;19995;-72
2022/11/08 07:36:27;;;;;;;;;;;;;;;7.74;70.50;98904.63;5208468;28;20035;-72
2022/11/08 07:39:17;;;;;;;;;;;;;;;7.80;70.41;98911.22;5195172;28;19999;-71
2022/11/08 07:42:07;;;;;;;;;;;;;;;7.86;71.36;98908.91;5205543;28;19932;-70
2022/11/08 07:44:58;;;;;;;;;;;;;;;8.03;70.96;98912.75;5215844;28;20019;-71
2022/11/08 07:47:55;;;;;;;;;;;;;;;8.03;70.86;98912.75;5213298;28;19935;-72
2022/11/08 07:50:45;;;;;;;;;;;;;;;8.38;71.32;98911.59;5205668;28;19975;-71
2022/11/08 07:53:35;;;;;;;;;;;;;;;8.59;70.17;98916.81;5209877;28;20325;-70
2022/11/08 07:56:25;;;;;;;;;;;;;;;8.61;70.71;98906.94;5209833;28;19927;-72
2022/11/08 07:59:14;;;;;;;;;;;;;;;8.79;70.86;98897.41;5217332;28;19935;-70
2022/11/08 08:02:05;;;;;;;;;;;;;;;8.92;70.36;98908.59;5206776;28;19928;-71
2022/11/08 08:04:55;;;;;;;;;;;;;;;8.93;69.63;98899.66;5209699;28;19928;-71
2022/11/08 08:07:45;;;;;;;;;;;;;;;9.44;67.70;98878.44;5205709;28;20382;-72
2022/11/08 08:10:35;;;;;;;;;;;;;;;10.61;66.14;98845.41;5220688;28;19937;-70
2022/11/08 08:13:25;;;;;;;;;;;;;;;10.65;67.17;98840.63;5208760;28;19931;-72
2022/11/08 08:16:15;;;;;;;;;;;;;;;11.88;63.51;98837.31;5210615;28;19931;-72
2022/11/08 08:19:05;;;;;;;;;;;;;;;12.68;60.93;98852.03;5206087;28;20405;-71
2022/11/08 08:21:55;;;;;;;;;;;;;;;12.72;60.31;98862.38;5192855;28;20062;-71
2022/11/08 08:24:45;;;;;;;;;;;;;;;12.40;61.90;98877.16;5216923;28;20977;-72
2022/11/08 08:27:34;;;;;;;;;;;;;;;12.18;62.91;98883.84;5208095;28;19947;-71
2022/11/08 08:30:25;;;;;;;;;;;;;;;12.40;63.10;98901.09;5203626;28;19972;-71
2022/11/08 08:33:16;;;;;;;;;;;;;;;11.95;63.78;98895.00;5208502;28;20467;-71
2022/11/08 08:36:21;;;;;;;;;;;;;;;12.13;62.73;98888.81;5222381;28;19936;-73
2022/11/08 08:39:11;;;;;;;;;;;;;;;12.39;63.16;98894.13;5221870;28;19927;-74
2022/11/08 08:42:01;;;;;;;;;;;;;;;13.82;60.36;98880.69;5216557;28;20014;-73
2022/11/08 08:44:50;;;;;;;;;;;;;;;14.64;55.97;98885.91;5198757;28;19927;-71
2022/11/08 08:47:40;;;;;;;;;;;;;;;14.58;55.08;98886.59;5194715;28;20457;-73
2022/11/08 08:50:31;;;;;;;;;;;;;;;14.13;56.01;98881.84;5212578;28;20401;-74
2022/11/08 08:53:21;;;;;;;;;;;;;;;14.35;55.50;98881.13;5195145;28;20192;-75
2022/11/08 08:56:12;;;;;;;;;;;;;;;14.26;55.76;98879.47;5215368;28;19928;-71
2022/11/08 08:59:01;;;;;;;;;;;;;;;14.22;57.74;98878.16;5196241;28;19936;-73
2022/11/08 09:02:12;;;;;;;;;;;;;;;14.60;55.43;98862.41;5223405;28;19928;-74
2022/11/08 09:05:02;;;;;;;;;;;;;;;14.52;56.03;98880.09;5213221;28;19928;-73
2022/11/08 09:07:53;;;;;;;;;;;;;;;14.18;58.05;98884.84;5218516;28;20091;-74
2022/11/08 09:10:44;;;;;;;;;;;;;;;14.41;58.23;98872.44;5215016;28;20408;-71
2022/11/08 09:13:34;;;;;;;;;;;;;;;14.15;58.39;98879.84;5220574;28;19951;-71
2022/11/08 09:16:24;;;;;;;;;;;;;;;14.30;57.61;98886.13;5213616;28;19931;-71
2022/11/08 09:19:14;;;;;;;;;;;;;;;14.12;57.82;98885.50;5195038;28;20342;-71
2022/11/08 09:22:04;;;;;;;;;;;;;;;14.16;57.03;98892.16;5207038;28;19935;-74
2022/11/08 09:24:54;;;;;;;;;;;;;;;14.36;57.12;98890.78;5210914;28;20070;-75
2022/11/08 09:27:44;;;;;;;;;;;;;;;13.85;57.14;98888.38;5229159;28;20150;-72
2022/11/08 09:30:34;;;;;;;;;;;;;;;13.83;57.14;98889.53;5221618;28;19928;-73
2022/11/08 09:33:25;;;;;;;;;;;;;;;14.03;55.90;98882.84;5220186;22;19951;-72
2022/11/08 09:36:16;;;;;;;;;;;;;;;14.06;56.41;98892.34;5207505;28;20372;-73
2022/11/08 09:39:05;;;;;;;;;;;;;;;14.34;55.64;98890.97;5192817;28;19928;-73
2022/11/08 09:41:55;;;;;;;;;;;;;;;14.13;56.32;98888.00;5230040;28;19927;-72
2022/11/08 09:45:01;;;;;;;;;;;;;;;14.44;56.22;98881.94;5224051;28;19939;-73
2022/11/08 09:47:57;;;;;;;;;;;;;;;14.33;57.41;98888.47;5233715;28;19980;-72
2022/11/08 09:50:50;;;;;;;;;;;;;;;14.18;56.07;98893.66;5218403;28;20045;-73
2022/11/08 09:53:55;;;;;;;;;;;;;;;14.62;55.04;98879.06;5251610;28;19935;-71
2022/11/08 09:56:45;;;;;;;;;;;;;;;14.62;54.89;98890.56;5239508;28;19943;-72
2022/11/08 09:59:41;;;;;;;;;;;;;;;14.37;55.90;98892.47;5203291;28;20022;-73
2022/11/08 10:02:32;;;;;;;;;;;;;;;14.31;56.14;98896.66;5228723;28;20294;-73
2022/11/08 10:05:26;;;;;;;;;;;;;;;14.76;54.62;98892.50;5242926;28;19927;-72
2022/11/08 10:08:36;;;;;;;;;;;;;;;14.41;55.01;98898.28;5246723;28;19943;-73
2022/11/08 10:11:30;;;;;;;;;;;;;;;14.75;55.26;98893.53;5244325;28;20385;-72
2022/11/08 10:14:38;;;;;;;;;;;;;;;14.83;54.14;98884.66;5225037;28;19927;-72
2022/11/08 10:17:53;;;;;;;;;;;;;;;14.76;54.03;98884.50;5243490;28;20061;-72
2022/11/08 10:20:55;;;;;;;;;;;;;;;14.49;56.06;98875.06;5242799;28;19955;-72
2022/11/08 10:24:00;;;;;;;;;;;;;;;14.40;55.97;98870.75;5221902;28;20395;-72
2022/11/08 10:26:51;;;;;;;;;;;;;;;14.29;55.62;98874.63;5238978;28;19928;-73
2022/11/08 10:29:44;;;;;;;;;;;;;;;14.69;55.53;98856.84;5237100;28;19920;-73
2022/11/08 10:32:34;;;;;;;;;;;;;;;14.62;55.88;98861.22;5243375;28;20015;-73
2022/11/08 10:35:31;;;;;;;;;;;;;;;14.93;56.35;98858.59;5196670;28;20386;-72
2022/11/08 10:38:22;;;;;;;;;;;;;;;14.66;56.16;98853.69;5252072;28;19963;-72
2022/11/08 10:41:19;;;;;;;;;;;;;;;14.19;56.94;98854.50;5249586;28;19927;-72
2022/11/08 10:44:19;;;;;;;;;;;;;;;14.45;56.04;98857.75;5227770;28;20509;-72
2022/11/08 10:47:12;;;;;;;;;;;;;;;15.03;56.50;98842.31;5223532;28;20001;-72
2022/11/08 10:50:13;;;;;;;;;;;;;;;15.16;56.14;98849.75;5246569;28;19955;-73
2022/11/08 10:53:04;;;;;;;;;;;;;;;15.61;54.04;98853.47;5236601;28;19992;-73
2022/11/08 10:56:02;;;;;;;;;;;;;;;15.90;52.35;98853.56;5232405;28;19963;-73
2022/11/08 10:58:52;;;;;;;;;;;;;;;16.18;54.43;98845.75;5244884;28;20021;-73
2022/11/08 11:01:48;;;;;;;;;;;;;;;15.90;53.56;98847.41;5228323;28;19920;-73
2022/11/08 11:04:38;;;;;;;;;;;;;;;15.92;53.89;98851.53;5219226;28;19946;-71
2022/11/08 11:07:32;;;;;;;;;;;;;;;15.77;53.92;98853.34;5230634;28;19932;-71
2022/11/08 11:10:25;;;;;;;;;;;;;;;15.92;53.29;98840.84;5229040;28;20155;-71
2022/11/08 11:13:20;;;;;;;;;;;;;;;16.20;52.30;98845.59;5212702;28;20019;-71
2022/11/08 11:16:12;;;;;;;;;;;;;;;16.26;52.79;98850.22;5224078;28;19950;-73
2022/11/08 11:19:04;;;;;;;;;;;;;;;16.20;53.91;98838.41;5205015;28;19939;-73
2022/11/08 11:21:56;;;;;;;;;;;;;;;16.23;53.03;98837.22;5233863;28;19935;-72
2022/11/08 11:24:48;;;;;;;;;;;;;;;16.31;52.45;98838.94;5245319;28;19927;-72
2022/11/08 11:27:40;;;;;;;;;;;;;;;16.13;53.72;98831.31;5218813;28;19936;-74
2022/11/08 11:30:34;;;;;;;;;;;;;;;16.20;53.53;98818.84;5217845;28;19931;-73
2022/11/08 11:33:25;;;;;;;;;;;;;;;16.17;54.32;98822.72;5214083;28;19927;-75
2022/11/08 11:36:19;;;;;;;;;;;;;;;16.36;54.21;98820.50;5229239;28;20405;-72
2022/11/08 11:39:48;;;;;;;;;;;;;;;16.41;53.90;98813.56;5301086;27;19937;-75
2022/11/08 11:42:44;;;;;;;;;;;;;;;16.29;53.77;98816.88;5259705;27;19954;-70
2022/11/08 11:45:42;;;;;;;;;;;;;;;16.56;53.67;98802.03;5278304;28;19958;-70
2022/11/08 11:48:38;;;;;;;;;;;;;;;16.62;52.58;98804.78;5278044;28;20309;-74
2022/11/08 11:51:29;;;;;;;;;;;;;;;16.61;52.47;98799.63;5275902;28;19938;-73
2022/11/08 11:54:26;;;;;;;;;;;;;;;16.62;53.07;98801.25;5280202;28;19992;-72
2022/11/08 11:57:15;;;;;;;;;;;;;;;16.78;53.62;98798.41;5283957;27;19954;-75
2022/11/08 12:00:11;;;;;;;;;;;;;;;16.75;51.94;98803.31;5287861;28;19991;-70
2022/11/08 12:03:08;;;;;;;;;;;;;;;17.04;52.58;98802.41;5292213;28;20009;-72
2022/11/08 12:06:10;;;;;;;;;;;;;;;17.04;52.63;98791.69;5289781;28;20020;-71
2022/11/08 12:09:09;;;;;;;;;;;;;;;17.21;50.75;98790.41;5318002;27;20396;-71
2022/11/08 12:12:05;;;;;;;;;;;;;;;17.28;52.05;98785.94;5288125;28;20237;-72
2022/11/08 12:15:14;;;;;;;;;;;;;;;17.49;51.32;98790.47;5288403;27;19931;-71
2022/11/08 12:18:24;;;;;;;;;;;;;;;17.95;50.98;98789.22;5314371;27;19977;-71
2022/11/08 12:21:54;;;;;;;;;;;;;;;17.91;49.95;98790.59;5288837;28;19946;-72
2022/11/08 12:25:23;;;;;;;;;;;;;;;18.14;49.12;98777.75;5292432;28;19924;-72
2022/11/08 12:28:13;;;;;;;;;;;;;;;18.03;49.93;98779.13;5268295;28;20063;-71
2022/11/08 12:31:03;;;;;;;;;;;;;;;18.15;48.71;98774.06;5249983;28;20413;-71
2022/11/08 12:33:54;;;;;;;;;;;;;;;18.18;47.26;98775.50;5289664;27;20387;-71
2022/11/08 12:36:47;;;;;;;;;;;;;;;17.77;48.89;98771.75;5287252;28;19931;-70
2022/11/08 12:39:44;;;;;;;;;;;;;;;17.76;49.93;98771.91;5290054;27;19934;-71
2022/11/08 12:42:53;;;;;;;;;;;;;;;17.75;48.85;98773.78;5281607;28;20080;-71
2022/11/08 12:45:52;;;;;;;;;;;;;;;17.79;51.27;98771.56;5287140;28;20295;-71
2022/11/08 12:48:47;;;;;;;;;;;;;;;17.52;50.84;98765.16;5278967;27;19924;-71
2022/11/08 12:51:46;;;;;;;;;;;;;;;17.34;50.70;98760.22;5293412;27;19967;-70
2022/11/08 12:54:39;;;;;;;;;;;;;;;17.14;50.84;98747.47;5264530;28;19935;-70
2022/11/08 12:57:30;;;;;;;;;;;;;;;17.12;50.69;98740.69;5265240;28;20385;-70
2022/11/08 13:00:21;;;;;;;;;;;;;;;17.05;50.34;98739.75;5268175;28;19936;-71
2022/11/08 13:03:11;;;;;;;;;;;;;;;17.34;50.96;98744.16;5262040;28;19955;-71
2022/11/08 13:06:04;;;;;;;;;;;;;;;17.35;50.68;98746.66;5274657;28;21053;-71
2022/11/08 13:09:14;;;;;;;;;;;;;;;17.30;50.89;98746.41;5279270;28;20098;-70
2022/11/08 13:12:22;;;;;;;;;;;;;;;17.59;50.68;98748.06;5260091;28;19932;-71
2022/11/08 13:15:14;;;;;;;;;;;;;;;17.61;51.71;98745.19;5277140;28;20312;-71
2022/11/08 13:18:08;;;;;;;;;;;;;;;17.59;50.72;98741.88;5274020;28;20419;-70
2022/11/08 13:20:58;;;;;;;;;;;;;;;17.52;52.19;98732.97;5267954;28;19931;-71
2022/11/08 13:23:48;;;;;;;;;;;;;;;17.78;51.27;98738.56;5267997;28;19931;-69
2022/11/08 13:26:41;;;;;;;;;;;;;;;17.80;50.95;98739.16;5264671;28;19959;-71
2022/11/08 13:29:32;;;;;;;;;;;;;;;17.99;50.16;98736.81;5266685;28;19978;-71
2022/11/08 13:32:29;;;;;;;;;;;;;;;17.90;50.88;98738.81;5265727;28;20484;-71
2022/11/08 13:35:36;;;;;;;;;;;;;;;17.93;51.83;98735.75;5271834;28;20359;-71
2022/11/08 13:38:44;;;;;;;;;;;;;;;17.95;51.26;98738.25;5266014;28;19942;-71
2022/11/08 13:41:54;;;;;;;;;;;;;;;17.96;51.60;98732.66;5266274;28;19932;-72
2022/11/08 13:44:53;;;;;;;;;;;;;;;17.99;52.09;98731.47;5267886;28;20124;-72
2022/11/08 13:47:46;;;;;;;;;;;;;;;18.00;52.48;98727.72;5264481;28;20161;-71
2022/11/08 13:50:55;;;;;;;;;;;;;;;17.91;52.46;98731.59;5261958;28;19931;-72
2022/11/08 13:53:48;;;;;;;;;;;;;;;17.83;54.71;98736.09;5270891;28;19931;-69
2022/11/08 13:56:41;;;;;;;;;;;;;;;17.80;55.94;98727.63;5269756;28;20507;-71
2022/11/08 13:59:31;;;;;;;;;;;;;;;17.85;54.37;98727.88;5272120;28;19931;-70
2022/11/08 14:02:21;;;;;;;;;;;;;;;17.62;53.86;98687.88;5269956;28;19932;-71
2022/11/08 14:05:19;;;;;;;;;;;;;;;17.81;54.32;98719.41;5271593;28;19932;-70
2022/11/08 14:08:15;;;;;;;;;;;;;;;17.66;52.61;98718.63;5270839;28;19947;-70
2022/11/08 14:11:24;;;;;;;;;;;;;;;17.69;52.93;98718.25;5269998;28;19977;-71
2022/11/08 14:14:27;;;;;;;;;;;;;;;17.82;52.29;98715.69;5271023;28;20426;-69
2022/11/08 14:17:37;;;;;;;;;;;;;;;17.78;52.42;98719.78;5271308;28;19931;-72
2022/11/08 14:20:38;;;;;;;;;;;;;;;17.65;52.50;98725.03;5270394;28;20298;-74
2022/11/08 14:23:34;;;;;;;;;;;;;;;17.65;52.58;98711.63;5272770;28;19997;-73
2022/11/08 14:26:24;;;;;;;;;;;;;;;17.63;52.97;98721.69;5271851;28;19962;-71
2022/11/08 14:29:16;;;;;;;;;;;;;;;17.77;52.80;98718.09;5265897;28;20565;-75
2022/11/08 14:32:14;;;;;;;;;;;;;;;17.56;53.96;98723.50;5263327;28;19934;-72
2022/11/08 14:35:11;;;;;;;;;;;;;;;17.58;53.73;98724.13;5263750;28;20420;-71
2022/11/08 14:38:02;;;;;;;;;;;;;;;17.56;52.96;98723.50;5265290;28;20034;-75
2022/11/08 14:40:54;;;;;;;;;;;;;;;17.55;53.57;98717.34;5267159;27;20393;-73
2022/11/08 14:43:44;;;;;;;;;;;;;;;17.37;54.24;98712.44;5266394;28;20372;-71
2022/11/08 14:46:37;;;;;;;;;;;;;;;17.25;54.00;98719.38;5270203;28;21723;-72
2022/11/08 14:49:27;;;;;;;;;;;;;;;17.09;53.76;98701.72;5273933;28;19932;-74
2022/11/08 14:52:18;;;;;;;;;;;;;;;17.19;53.58;98724.66;5272217;28;20461;-70
2022/11/08 14:55:10;;;;;;;;;;;;;;;17.09;54.36;98714.28;5271679;28;19931;-70
2022/11/08 14:58:11;;;;;;;;;;;;;;;16.91;54.08;98712.84;5264110;28;19938;-73
2022/11/08 15:01:02;;;;;;;;;;;;;;;16.79;54.14;98708.22;5261956;28;19939;-73
2022/11/08 15:03:57;;;;;;;;;;;;;;;16.95;53.95;98709.78;5262568;28;20014;-70
2022/11/08 15:06:48;;;;;;;;;;;;;;;17.00;53.57;98704.72;5264912;28;20028;-72
2022/11/08 15:09:40;;;;;;;;;;;;;;;16.92;54.23;98713.72;5265123;28;19939;-72
2022/11/08 15:12:30;;;;;;;;;;;;;;;16.93;53.75;98707.31;5265845;28;20003;-71
2022/11/08 15:15:25;;;;;;;;;;;;;;;16.88;53.90;98702.53;5266762;28;19942;-73
2022/11/08 15:18:16;;;;;;;;;;;;;;;16.73;55.20;98698.25;5266207;28;19982;-70
2022/11/08 15:21:20;;;;;;;;;;;;;;;16.65;55.93;98702.69;5269212;28;19938;-72
2022/11/08 15:24:12;;;;;;;;;;;;;;;16.47;56.79;98698.78;5272953;28;19943;-71
2022/11/08 15:27:13;;;;;;;;;;;;;;;16.22;57.17;98699.09;5269704;28;20018;-71
2022/11/08 15:30:08;;;;;;;;;;;;;;;16.04;57.96;98701.34;5268640;28;20057;-70